ES-0003 weather

Banco de España Helipad
Madrid, Madrid, Spain

Public forecast

Using degrees Celsius for public forecast. Weather courtesy of forecast.io.

Closest aviation weather report (METAR) to Banco de España Helipad

Closest report is Adolfo Suárez Madrid–Barajas Airport, 6.9 nm (12.7 km) ENE. Retrieved 2019/11/22 11:30 UTC (0 seconds ago):

LEMD 221130Z 17017G27KT 120V200 4000 DZ BR SCT013 BKN020 BKN045 11/09 Q0997 R88/29//95 NOSIG

Closest aviation forecast (TAF) to Banco de España Helipad

Closest forecast is Adolfo Suárez Madrid–Barajas Airport, 6.9 nm (12.7 km) ENE. Retrieved 2019/11/22 06:27 UTC (5 hours ago):

TAF TAF LEMD 220500Z 2206/2312 19006KT 9999 SCT035 BKN045 TX13/2215Z TN06/2305Z PROB40 TEMPO 2206/2303 22016KT 2000 RADZ BR BKN009 PROB40 TEMPO 2212/2221 22015G30KT PROB40 TEMPO 2221/2306 24015G25KT